createdAt,value
2022-08-14T00:02:27.368Z,8.73
2022-08-14T00:04:57.212Z,9.17
2022-08-14T00:07:25.456Z,8.43
2022-08-14T00:10:02.219Z,8.50
2022-08-14T00:12:48.219Z,8.20
2022-08-14T00:15:29.926Z,8.97
2022-08-14T00:18:14.496Z,8.50
2022-08-14T00:20:45.274Z,9.47
2022-08-14T00:23:17.770Z,8.03
2022-08-14T00:25:53.845Z,9.13
2022-08-14T00:28:36.774Z,8.50
2022-08-14T00:31:07.783Z,8.10
2022-08-14T00:33:39.332Z,8.70
2022-08-14T00:36:36.780Z,8.10
2022-08-14T00:39:09.263Z,8.60
2022-08-14T00:41:39.182Z,8.43
2022-08-14T00:44:08.354Z,8.03
2022-08-14T00:46:38.065Z,7.93
2022-08-14T00:49:08.200Z,8.40
2022-08-14T00:51:41.884Z,8.60
2022-08-14T00:54:16.675Z,8.77
2022-08-14T00:56:55.649Z,9.30
2022-08-14T00:59:25.649Z,9.70
2022-08-14T01:01:57.161Z,10.03
2022-08-14T01:04:52.158Z,9.40
2022-08-14T01:07:21.159Z,9.77
2022-08-14T01:09:51.709Z,9.00
2022-08-14T01:12:27.166Z,9.77
2022-08-14T01:14:58.680Z,9.13
2022-08-14T01:17:49.945Z,9.30
2022-08-14T01:20:39.759Z,8.80
2022-08-14T01:23:16.232Z,9.23
2022-08-14T01:25:47.940Z,9.20
2022-08-14T01:28:46.230Z,9.20
2022-08-14T01:31:06.706Z,8.80
2022-08-14T01:34:00.109Z,8.77
2022-08-14T01:36:24.356Z,8.17
2022-08-14T01:38:58.083Z,8.97
2022-08-14T01:41:30.288Z,8.97
2022-08-14T01:44:02.632Z,8.10
2022-08-14T01:46:36.789Z,8.50
2022-08-14T01:49:07.721Z,9.07
2022-08-14T01:51:36.543Z,8.10
2022-08-14T01:54:09.358Z,9.33
2022-08-14T01:56:39.723Z,8.53
2022-08-14T01:59:10.184Z,7.90
2022-08-14T02:01:51.175Z,8.57
2022-08-14T02:04:40.619Z,9.67
2022-08-14T02:07:15.788Z,9.47
2022-08-14T02:09:45.508Z,9.40
2022-08-14T02:12:26.468Z,8.43
2022-08-14T02:15:00.336Z,8.53
2022-08-14T02:17:30.620Z,8.57
2022-08-14T02:19:59.378Z,9.30
2022-08-14T02:22:32.838Z,8.63
2022-08-14T02:25:03.571Z,8.87
2022-08-14T02:28:25.234Z,9.13
2022-08-14T02:30:20.004Z,9.40
2022-08-14T02:32:50.509Z,8.60
2022-08-14T02:35:21.952Z,8.93
2022-08-14T02:37:54.680Z,9.23
2022-08-14T02:40:32.241Z,9.20
2022-08-14T02:43:03.357Z,8.77
2022-08-14T02:45:38.691Z,8.70
2022-08-14T02:49:04.654Z,8.83
2022-08-14T02:51:02.568Z,8.93
2022-08-14T02:53:31.455Z,8.90
2022-08-14T02:56:10.100Z,9.20
2022-08-14T02:58:55.532Z,10.10
2022-08-14T03:01:31.377Z,12.63
2022-08-14T03:04:12.479Z,11.40
2022-08-14T03:06:58.239Z,13.43
2022-08-14T03:09:41.691Z,14.17
2022-08-14T03:12:30.708Z,9.77
2022-08-14T03:15:00.651Z,10.73
2022-08-14T03:17:31.721Z,10.10
2022-08-14T03:20:11.374Z,10.57
2022-08-14T03:22:41.892Z,10.57
2022-08-14T03:25:12.134Z,10.70
2022-08-14T03:27:47.791Z,8.80
2022-08-14T03:30:24.768Z,9.60
2022-08-14T03:33:08.226Z,10.40
2022-08-14T03:35:39.850Z,10.00
2022-08-14T03:39:15.115Z,9.10
2022-08-14T03:40:58.362Z,9.93
2022-08-14T03:43:32.449Z,9.90
2022-08-14T03:46:01.148Z,10.10
2022-08-14T03:48:40.528Z,10.20
2022-08-14T03:51:09.991Z,10.03
2022-08-14T03:53:42.155Z,10.13
2022-08-14T03:56:14.077Z,10.17
2022-08-14T03:58:54.461Z,10.03
2022-08-14T04:01:24.568Z,9.80
2022-08-14T04:04:05.471Z,10.10
2022-08-14T04:06:42.617Z,9.50
2022-08-14T04:09:16.851Z,9.77
2022-08-14T04:11:45.507Z,9.73
2022-08-14T04:14:16.428Z,9.00
2022-08-14T04:16:47.379Z,10.20
2022-08-14T04:19:17.368Z,9.60
2022-08-14T04:22:02.458Z,10.40
2022-08-14T04:24:38.196Z,10.07
2022-08-14T04:27:09.394Z,9.90
2022-08-14T04:29:40.608Z,9.90
2022-08-14T04:33:02.249Z,10.20
2022-08-14T04:35:00.096Z,10.37
2022-08-14T04:37:46.177Z,10.20
2022-08-14T04:40:40.592Z,9.50
2022-08-14T04:43:38.830Z,10.07
2022-08-14T04:46:11.908Z,9.80
2022-08-14T04:49:00.256Z,10.07
2022-08-14T04:51:30.104Z,9.87
2022-08-14T04:54:05.728Z,9.50
2022-08-14T04:56:34.816Z,10.43
2022-08-14T04:59:10.387Z,10.60
2022-08-14T05:01:49.824Z,9.73
2022-08-14T05:04:20.269Z,9.57
2022-08-14T05:06:53.599Z,9.97
2022-08-14T05:09:23.231Z,10.33
2022-08-14T05:11:51.858Z,9.17
2022-08-14T05:14:46.677Z,9.60
2022-08-14T05:17:12.158Z,8.37
2022-08-14T05:19:44.748Z,8.50
2022-08-14T05:22:29.838Z,9.17
2022-08-14T05:24:58.468Z,9.13
2022-08-14T05:27:26.495Z,9.13
2022-08-14T05:30:01.303Z,9.03
2022-08-14T05:32:31.519Z,8.90
2022-08-14T05:35:00.939Z,9.17
2022-08-14T05:37:30.141Z,8.23
2022-08-14T05:40:00.439Z,8.37
2022-08-14T05:42:34.306Z,8.93
2022-08-14T05:45:04.575Z,7.73
2022-08-14T05:47:39.862Z,7.50
2022-08-14T05:50:18.478Z,7.80
2022-08-14T05:52:49.239Z,8.50
2022-08-14T05:55:22.958Z,8.30
2022-08-14T05:57:59.480Z,8.27
2022-08-14T06:00:36.877Z,7.17
2022-08-14T06:03:10.683Z,7.70
2022-08-14T06:05:39.613Z,7.93
2022-08-14T06:08:31.359Z,7.70
2022-08-14T06:11:06.797Z,8.10
2022-08-14T06:13:44.591Z,7.43
2022-08-14T06:16:13.092Z,7.70
2022-08-14T06:18:42.492Z,7.53
2022-08-14T06:21:13.529Z,6.50
2022-08-14T06:23:41.782Z,7.57
2022-08-14T06:26:11.182Z,8.03
2022-08-14T06:28:40.482Z,7.90
2022-08-14T06:31:13.420Z,7.77
2022-08-14T06:35:02.116Z,7.13
2022-08-14T06:36:31.771Z,7.97
2022-08-14T06:38:59.946Z,7.87
2022-08-14T06:41:52.712Z,7.03
2022-08-14T06:44:16.825Z,7.70
2022-08-14T06:46:49.314Z,7.00
2022-08-14T06:49:18.936Z,7.20
2022-08-14T06:51:47.101Z,7.83
2022-08-14T06:54:18.258Z,7.70
2022-08-14T06:56:54.276Z,6.57
2022-08-14T06:59:22.533Z,7.70
2022-08-14T07:02:13.322Z,7.20
2022-08-14T07:05:16.942Z,7.27
2022-08-14T07:07:49.401Z,6.47
2022-08-14T07:10:21.814Z,6.60
2022-08-14T07:13:01.157Z,6.97
2022-08-14T07:15:34.164Z,5.83
2022-08-14T07:18:09.357Z,6.57
2022-08-14T07:20:39.804Z,6.97
2022-08-14T07:23:19.799Z,7.03
2022-08-14T07:25:51.723Z,5.87
2022-08-14T07:28:23.443Z,6.33
2022-08-14T07:30:52.335Z,6.00
2022-08-14T07:33:24.318Z,6.50
2022-08-14T07:36:01.413Z,7.00
2022-08-14T07:38:35.872Z,7.30
2022-08-14T07:41:11.866Z,6.20
2022-08-14T07:43:44.037Z,6.00
2022-08-14T07:46:21.305Z,6.20
2022-08-14T07:48:56.844Z,6.20
2022-08-14T07:51:34.178Z,6.07
2022-08-14T07:54:06.897Z,6.70
2022-08-14T07:56:47.029Z,6.63
2022-08-14T07:59:18.353Z,5.90
2022-08-14T08:01:51.614Z,6.23
2022-08-14T08:04:27.171Z,6.73
2022-08-14T08:06:56.984Z,6.10
2022-08-14T08:09:31.737Z,6.87
2022-08-14T08:12:04.738Z,6.87
2022-08-14T08:14:56.873Z,6.50
2022-08-14T08:17:24.314Z,6.10
2022-08-14T08:19:52.849Z,6.33
2022-08-14T08:22:23.757Z,6.17
2022-08-14T08:24:55.573Z,5.97
2022-08-14T08:27:26.103Z,6.53
2022-08-14T08:30:10.225Z,5.83
2022-08-14T08:32:41.244Z,6.20
2022-08-14T08:35:20.370Z,6.63
2022-08-14T08:38:01.173Z,5.77
2022-08-14T08:40:35.736Z,6.30
2022-08-14T08:43:18.217Z,5.90
2022-08-14T08:45:54.356Z,6.43
2022-08-14T08:48:35.985Z,6.43
2022-08-14T08:51:07.268Z,6.10
2022-08-14T08:53:37.815Z,6.60
2022-08-14T08:56:06.071Z,6.60
2022-08-14T08:58:39.183Z,6.80
2022-08-14T09:01:07.471Z,5.97
2022-08-14T09:03:43.981Z,6.90
2022-08-14T09:06:56.930Z,6.30
2022-08-14T09:09:01.791Z,6.43
2022-08-14T09:11:32.406Z,6.27
2022-08-14T09:14:04.659Z,6.57
2022-08-14T09:16:34.450Z,6.50
2022-08-14T09:19:04.063Z,6.20
2022-08-14T09:21:32.990Z,6.53
2022-08-14T09:24:28.893Z,5.97
2022-08-14T09:26:52.440Z,6.60
2022-08-14T09:29:23.081Z,6.83
2022-08-14T09:31:57.384Z,6.90
2022-08-14T09:34:58.145Z,7.23
2022-08-14T09:37:48.645Z,7.00
2022-08-14T09:40:29.477Z,7.17
2022-08-14T09:43:07.073Z,7.30
2022-08-14T09:45:52.594Z,6.80
2022-08-14T09:48:27.700Z,6.87
2022-08-14T09:54:17.815Z,7.00
2022-08-14T09:56:32.926Z,6.87
2022-08-14T09:59:15.049Z,7.27
2022-08-14T10:01:46.125Z,7.00
2022-08-14T10:04:33.362Z,6.93
2022-08-14T10:07:05.104Z,7.00
2022-08-14T10:09:34.991Z,7.17
2022-08-14T10:12:06.867Z,7.10
2022-08-14T10:14:53.365Z,7.57
2022-08-14T10:17:27.595Z,7.03
2022-08-14T10:20:08.241Z,7.57
2022-08-14T10:23:22.233Z,7.30
2022-08-14T10:25:50.696Z,6.90
2022-08-14T10:28:39.585Z,7.30
2022-08-14T10:31:19.922Z,7.43
2022-08-14T10:34:04.884Z,7.10
2022-08-14T10:36:47.734Z,7.90
2022-08-14T10:39:18.673Z,7.03
2022-08-14T10:41:49.230Z,7.23
2022-08-14T10:44:29.679Z,7.80
2022-08-14T10:47:39.165Z,7.47
2022-08-14T10:49:58.704Z,7.73
2022-08-14T10:52:31.752Z,8.23
2022-08-14T10:55:13.930Z,7.33
2022-08-14T10:57:53.551Z,7.40
2022-08-14T11:00:30.267Z,7.00
2022-08-14T11:03:09.323Z,6.80
2022-08-14T11:05:42.149Z,7.17
2022-08-14T11:08:12.683Z,8.00
2022-08-14T11:10:44.892Z,11.43
2022-08-14T11:13:18.664Z,7.20
2022-08-14T11:15:49.830Z,7.63
2022-08-14T11:18:20.627Z,7.33
2022-08-14T11:21:00.374Z,7.00
2022-08-14T11:23:38.464Z,7.53
2022-08-14T11:26:10.647Z,7.00
2022-08-14T11:28:48.092Z,7.37
2022-08-14T11:31:23.302Z,6.70
2022-08-14T11:33:55.132Z,7.43
2022-08-14T11:36:35.088Z,6.70
2022-08-14T11:39:23.202Z,6.87
2022-08-14T11:42:57.348Z,6.50
2022-08-14T11:44:53.910Z,7.07
2022-08-14T11:47:26.592Z,7.50
2022-08-14T11:50:13.838Z,7.20
2022-08-14T11:52:57.071Z,7.33
2022-08-14T11:55:36.160Z,6.90
2022-08-14T11:58:09.543Z,7.23
2022-08-14T12:00:47.992Z,7.20
2022-08-14T12:03:27.204Z,6.60
2022-08-14T12:06:27.850Z,6.90
2022-08-14T12:09:00.024Z,7.27
2022-08-14T12:11:44.280Z,7.60
2022-08-14T12:14:29.974Z,6.63
2022-08-14T12:17:06.704Z,7.30
2022-08-14T12:19:53.662Z,7.70
2022-08-14T12:22:35.113Z,6.57
2022-08-14T12:25:10.066Z,6.43
2022-08-14T12:27:46.716Z,7.57
2022-08-14T12:30:37.348Z,7.27
2022-08-14T12:33:21.999Z,7.90
2022-08-14T12:35:56.280Z,7.13
2022-08-14T12:38:35.927Z,7.47
2022-08-14T12:41:06.371Z,6.63
2022-08-14T12:43:47.798Z,6.50
2022-08-14T12:46:27.482Z,7.30
2022-08-14T12:48:58.225Z,7.00
2022-08-14T12:51:30.911Z,7.13
2022-08-14T12:54:01.093Z,6.93
2022-08-14T12:56:33.751Z,7.23
2022-08-14T12:59:03.415Z,6.53
2022-08-14T13:01:59.633Z,6.70
2022-08-14T13:04:21.587Z,7.10
2022-08-14T13:06:52.832Z,7.30
2022-08-14T13:09:27.930Z,7.23
2022-08-14T13:12:32.242Z,7.07
2022-08-14T13:14:58.670Z,7.07
2022-08-14T13:17:28.471Z,6.97
2022-08-14T13:20:00.633Z,7.53
2022-08-14T13:22:38.226Z,7.13
2022-08-14T13:25:12.731Z,6.87
2022-08-14T13:27:46.654Z,6.90
2022-08-14T13:30:23.848Z,6.50
2022-08-14T13:32:54.600Z,6.80
2022-08-14T13:35:27.188Z,7.17
2022-08-14T13:37:56.660Z,7.30
2022-08-14T13:40:27.204Z,7.17
2022-08-14T13:42:57.665Z,7.40
2022-08-14T13:45:33.579Z,6.67
2022-08-14T13:48:18.434Z,6.97
2022-08-14T13:51:04.177Z,6.80
2022-08-14T13:53:41.354Z,7.47
2022-08-14T13:56:14.446Z,7.43
2022-08-14T13:58:47.126Z,7.47
2022-08-14T14:01:18.914Z,6.80
2022-08-14T14:03:51.402Z,7.17
2022-08-14T14:06:25.437Z,6.80
2022-08-14T14:08:59.152Z,6.90
2022-08-14T14:11:29.865Z,7.03
2022-08-14T14:14:00.360Z,7.40
2022-08-14T14:16:30.824Z,6.60
2022-08-14T14:19:06.402Z,6.73
2022-08-14T14:21:37.087Z,7.10
2022-08-14T14:24:07.637Z,6.50
2022-08-14T14:26:36.305Z,7.10
2022-08-14T14:29:07.781Z,7.43
2022-08-14T14:31:40.546Z,6.70
2022-08-14T14:34:19.970Z,6.60
2022-08-14T14:37:02.435Z,7.80
2022-08-14T14:39:37.479Z,7.13
2022-08-14T14:42:08.180Z,7.40
2022-08-14T14:44:41.360Z,7.50
2022-08-14T14:47:11.962Z,7.47
2022-08-14T14:49:51.412Z,7.87
2022-08-14T14:52:26.947Z,6.40
2022-08-14T14:54:59.076Z,7.70
2022-08-14T14:57:35.225Z,7.17
2022-08-14T15:00:06.789Z,7.10
2022-08-14T15:02:41.276Z,6.80
2022-08-14T15:05:11.748Z,7.07
2022-08-14T15:07:41.421Z,6.73
2022-08-14T15:10:27.518Z,6.80
2022-08-14T15:13:04.282Z,6.80
2022-08-14T15:15:33.664Z,6.23
2022-08-14T15:18:07.885Z,6.80
2022-08-14T15:20:55.122Z,6.77
2022-08-14T15:23:24.686Z,7.20
2022-08-14T15:25:54.258Z,7.00
2022-08-14T15:28:23.221Z,6.87
2022-08-14T15:30:58.797Z,7.30
2022-08-14T15:34:33.349Z,6.70
2022-08-14T15:36:45.611Z,6.67
2022-08-14T15:39:14.374Z,6.50
2022-08-14T15:41:45.332Z,7.43
2022-08-14T15:44:25.393Z,6.67
2022-08-14T15:46:56.321Z,7.63
2022-08-14T15:49:28.559Z,6.93
2022-08-14T15:52:03.474Z,7.40
2022-08-14T15:54:32.328Z,8.00
2022-08-14T15:57:06.162Z,7.50
2022-08-14T15:59:50.884Z,6.63
2022-08-14T16:02:24.576Z,7.23
2022-08-14T16:04:56.088Z,7.00
2022-08-14T16:07:27.283Z,6.70
2022-08-14T16:10:25.706Z,6.47
2022-08-14T16:12:46.721Z,6.80
2022-08-14T16:15:17.851Z,7.17
2022-08-14T16:17:46.955Z,6.80
2022-08-14T16:20:41.862Z,7.20
2022-08-14T16:23:08.743Z,6.10
2022-08-14T16:25:40.685Z,6.27
2022-08-14T16:28:10.226Z,6.80
2022-08-14T16:30:56.107Z,7.37
2022-08-14T16:33:56.642Z,6.70
2022-08-14T16:36:29.966Z,7.07
2022-08-14T16:39:01.849Z,7.60
2022-08-14T16:41:30.732Z,7.10
2022-08-14T16:44:02.657Z,7.40
2022-08-14T16:46:37.397Z,7.07
2022-08-14T16:49:10.869Z,7.03
2022-08-14T16:51:41.062Z,6.60
2022-08-14T16:54:33.662Z,7.13
2022-08-14T16:57:16.041Z,6.80
2022-08-14T16:59:52.204Z,7.10
2022-08-14T17:02:34.988Z,7.53
2022-08-14T17:05:21.581Z,7.83
2022-08-14T17:08:33.278Z,7.90
2022-08-14T17:11:04.869Z,7.50
2022-08-14T17:13:59.426Z,7.20
2022-08-14T17:16:35.856Z,7.40
2022-08-14T17:19:13.487Z,7.97
2022-08-14T17:21:47.486Z,8.43
2022-08-14T17:24:57.594Z,7.37
2022-08-14T17:27:07.362Z,7.73
2022-08-14T17:29:54.673Z,7.43
2022-08-14T17:32:44.489Z,6.70
2022-08-14T17:35:57.902Z,7.70
2022-08-14T17:38:38.475Z,7.07
2022-08-14T17:41:22.873Z,7.10
2022-08-14T17:43:55.243Z,7.73
2022-08-14T17:46:36.069Z,7.00
2022-08-14T17:49:14.622Z,7.50
2022-08-14T17:52:01.737Z,7.47
2022-08-14T17:54:35.053Z,7.93
2022-08-14T17:57:12.989Z,8.20
2022-08-14T17:59:43.532Z,7.97
2022-08-14T18:02:16.776Z,8.30
2022-08-14T18:04:47.424Z,7.90
2022-08-14T18:07:59.716Z,7.97
2022-08-14T18:10:53.084Z,8.07
2022-08-14T18:13:01.668Z,7.60
2022-08-14T18:15:36.834Z,8.13
2022-08-14T18:18:09.035Z,7.80
2022-08-14T18:21:42.213Z,7.93
2022-08-14T18:23:28.334Z,7.30
2022-08-14T18:25:58.703Z,8.80
2022-08-14T18:28:51.679Z,8.33
2022-08-14T18:31:41.956Z,7.87
2022-08-14T18:34:31.355Z,7.80
2022-08-14T18:37:17.033Z,7.77
2022-08-14T18:40:03.027Z,7.70
2022-08-14T18:42:46.256Z,8.10
2022-08-14T18:45:18.658Z,8.30
2022-08-14T18:48:06.507Z,8.20
2022-08-14T18:50:52.456Z,8.17
2022-08-14T18:53:25.430Z,8.23
2022-08-14T18:56:09.721Z,8.50
2022-08-14T18:58:57.099Z,7.90
2022-08-14T19:01:29.641Z,8.73
2022-08-14T19:03:59.076Z,9.37
2022-08-14T19:06:42.882Z,9.33
2022-08-14T19:09:50.577Z,9.70
2022-08-14T19:12:56.714Z,8.80
2022-08-14T19:15:28.379Z,9.83
2022-08-14T19:18:14.662Z,9.30
2022-08-14T19:20:53.690Z,9.93
2022-08-14T19:23:42.010Z,9.60
2022-08-14T19:26:33.929Z,8.43
2022-08-14T19:29:26.738Z,9.00
2022-08-14T19:32:36.501Z,9.53
2022-08-14T19:35:16.817Z,10.80
2022-08-14T19:37:52.079Z,11.07
2022-08-14T19:40:31.866Z,10.87
2022-08-14T19:43:06.342Z,12.63
2022-08-14T19:45:35.397Z,16.77
2022-08-14T19:48:13.070Z,20.03
2022-08-14T19:50:45.993Z,17.73
2022-08-14T19:53:17.680Z,16.57
2022-08-14T19:55:58.782Z,14.10
2022-08-14T19:58:38.989Z,13.30
2022-08-14T20:01:37.211Z,12.43
2022-08-14T20:04:46.500Z,11.37
2022-08-14T20:07:04.406Z,10.50
2022-08-14T20:11:04.631Z,10.23
2022-08-14T20:12:35.400Z,10.63
2022-08-14T20:15:08.855Z,9.40
2022-08-14T20:17:40.508Z,11.07
2022-08-14T20:20:20.905Z,10.03
2022-08-14T20:23:01.938Z,9.30
2022-08-14T20:25:37.696Z,9.33
2022-08-14T20:28:29.470Z,10.00
2022-08-14T20:31:14.244Z,9.80
2022-08-14T20:34:06.129Z,9.23
2022-08-14T20:36:39.043Z,8.90
2022-08-14T20:39:15.655Z,9.70
2022-08-14T20:41:48.915Z,9.50
2022-08-14T20:44:40.351Z,9.03
2022-08-14T20:47:08.657Z,8.40
2022-08-14T20:49:37.508Z,10.17
2022-08-14T20:52:19.277Z,9.43
2022-08-14T20:54:51.374Z,8.87
2022-08-14T20:57:20.119Z,9.77
2022-08-14T20:59:53.151Z,9.00
2022-08-14T21:02:34.424Z,9.57
2022-08-14T21:05:16.402Z,10.73
2022-08-14T21:07:51.371Z,11.90
2022-08-14T21:10:33.852Z,11.30
2022-08-14T21:13:25.539Z,10.00
2022-08-14T21:15:57.687Z,10.03
2022-08-14T21:18:29.739Z,9.73
2022-08-14T21:20:59.335Z,10.10
2022-08-14T21:23:32.731Z,10.07
2022-08-14T21:26:03.617Z,9.97
2022-08-14T21:28:35.462Z,11.20
2022-08-14T21:31:05.520Z,11.43
2022-08-14T21:33:37.149Z,10.43
2022-08-14T21:36:07.869Z,10.40
2022-08-14T21:38:38.086Z,10.97
2022-08-14T21:41:41.842Z,11.03
2022-08-14T21:44:18.407Z,10.70
2022-08-14T21:46:51.224Z,11.30
2022-08-14T21:49:25.563Z,10.43
2022-08-14T21:52:49.559Z,11.30
2022-08-14T21:54:54.453Z,10.67
2022-08-14T21:57:56.558Z,11.47
2022-08-14T22:00:35.945Z,11.30
2022-08-14T22:03:09.073Z,10.33
2022-08-14T22:05:40.307Z,11.53
2022-08-14T22:08:11.954Z,10.60
2022-08-14T22:10:41.434Z,11.17
2022-08-14T22:13:11.308Z,11.77
2022-08-14T22:15:43.827Z,11.13
2022-08-14T22:18:20.380Z,11.20
2022-08-14T22:20:53.727Z,11.63
2022-08-14T22:23:23.876Z,11.77
2022-08-14T22:25:52.731Z,11.70
2022-08-14T22:28:25.171Z,11.40
2022-08-14T22:30:54.923Z,12.57
2022-08-14T22:33:30.885Z,11.33
2022-08-14T22:36:01.577Z,12.50
2022-08-14T22:38:35.432Z,11.93
2022-08-14T22:41:26.738Z,11.93
2022-08-14T22:43:59.425Z,11.07
2022-08-14T22:46:28.361Z,12.00
2022-08-14T22:48:57.714Z,12.13
2022-08-14T22:51:28.290Z,11.83
2022-08-14T22:53:59.310Z,11.90
2022-08-14T22:56:30.468Z,11.70
2022-08-14T22:59:01.930Z,11.90
2022-08-14T23:01:56.397Z,11.83
2022-08-14T23:04:35.061Z,11.70
2022-08-14T23:07:22.125Z,11.67
2022-08-14T23:09:55.933Z,10.90
2022-08-14T23:12:29.451Z,11.37
2022-08-14T23:14:59.894Z,11.43
2022-08-14T23:17:39.132Z,12.07
2022-08-14T23:20:19.320Z,12.67
2022-08-14T23:22:53.245Z,11.70
2022-08-14T23:25:53.184Z,13.90
2022-08-14T23:28:34.674Z,12.73
2022-08-14T23:31:08.487Z,11.97
2022-08-14T23:33:45.800Z,10.77
2022-08-14T23:36:32.064Z,11.67
2022-08-14T23:39:07.149Z,12.47
2022-08-14T23:41:46.158Z,11.13
2022-08-14T23:44:22.519Z,12.57
2022-08-14T23:46:56.684Z,11.60
2022-08-14T23:49:28.636Z,11.10
2022-08-14T23:52:50.325Z,11.90
2022-08-14T23:55:11.140Z,11.70
2022-08-14T23:57:43.984Z,12.50
